sensor_id;sensor_type;location;lat;lon;timestamp;P1;durP1;ratioP1;P2;durP2;ratioP2
46551;SDS011;32278;51.810;4.712;2022-09-09T00:04:17;7.32;;;2.20;;
46551;SDS011;32278;51.810;4.712;2022-09-09T00:12:38;3.35;;;1.70;;
46551;SDS011;32278;51.810;4.712;2022-09-09T00:15:26;6.07;;;2.50;;
46551;SDS011;32278;51.810;4.712;2022-09-09T00:20:43;7.68;;;2.95;;
46551;SDS011;32278;51.810;4.712;2022-09-09T00:23:34;5.43;;;2.97;;
46551;SDS011;32278;51.810;4.712;2022-09-09T00:29:40;5.75;;;2.53;;
46551;SDS011;32278;51.810;4.712;2022-09-09T00:31:41;5.13;;;2.80;;
46551;SDS011;32278;51.810;4.712;2022-09-09T00:34:14;6.53;;;2.80;;
46551;SDS011;32278;51.810;4.712;2022-09-09T00:36:43;7.20;;;3.53;;
46551;SDS011;32278;51.810;4.712;2022-09-09T00:39:23;6.35;;;2.38;;
46551;SDS011;32278;51.810;4.712;2022-09-09T00:42:09;8.02;;;2.83;;
46551;SDS011;32278;51.810;4.712;2022-09-09T00:44:38;6.35;;;2.97;;
46551;SDS011;32278;51.810;4.712;2022-09-09T00:57:29;6.03;;;3.20;;
46551;SDS011;32278;51.810;4.712;2022-09-09T01:11:03;10.70;;;3.67;;
46551;SDS011;32278;51.810;4.712;2022-09-09T01:13:30;9.52;;;3.67;;
46551;SDS011;32278;51.810;4.712;2022-09-09T01:16:02;8.63;;;4.20;;
46551;SDS011;32278;51.810;4.712;2022-09-09T01:18:33;6.90;;;3.60;;
46551;SDS011;32278;51.810;4.712;2022-09-09T01:26:47;8.00;;;4.07;;
46551;SDS011;32278;51.810;4.712;2022-09-09T01:29:17;9.68;;;4.55;;
46551;SDS011;32278;51.810;4.712;2022-09-09T01:31:57;7.03;;;4.18;;
46551;SDS011;32278;51.810;4.712;2022-09-09T01:34:42;7.50;;;4.72;;
46551;SDS011;32278;51.810;4.712;2022-09-09T01:37:08;5.90;;;4.07;;
46551;SDS011;32278;51.810;4.712;2022-09-09T01:39:37;10.20;;;4.28;;
46551;SDS011;32278;51.810;4.712;2022-09-09T01:42:07;10.10;;;4.50;;
46551;SDS011;32278;51.810;4.712;2022-09-09T01:44:36;9.63;;;4.93;;
46551;SDS011;32278;51.810;4.712;2022-09-09T01:47:03;11.68;;;5.25;;
46551;SDS011;32278;51.810;4.712;2022-09-09T01:49:29;11.20;;;5.32;;
46551;SDS011;32278;51.810;4.712;2022-09-09T01:51:55;6.72;;;4.63;;
46551;SDS011;32278;51.810;4.712;2022-09-09T01:54:23;11.02;;;4.25;;
46551;SDS011;32278;51.810;4.712;2022-09-09T01:59:36;8.20;;;4.38;;
46551;SDS011;32278;51.810;4.712;2022-09-09T02:05:01;10.18;;;4.47;;
46551;SDS011;32278;51.810;4.712;2022-09-09T02:07:42;10.38;;;5.07;;
46551;SDS011;32278;51.810;4.712;2022-09-09T02:10:16;6.53;;;4.50;;
46551;SDS011;32278;51.810;4.712;2022-09-09T02:12:49;8.07;;;4.18;;
46551;SDS011;32278;51.810;4.712;2022-09-09T02:15:32;8.98;;;4.53;;
46551;SDS011;32278;51.810;4.712;2022-09-09T02:18:04;9.95;;;4.55;;
46551;SDS011;32278;51.810;4.712;2022-09-09T02:20:33;8.02;;;4.60;;
46551;SDS011;32278;51.810;4.712;2022-09-09T02:23:02;9.90;;;4.40;;
46551;SDS011;32278;51.810;4.712;2022-09-09T02:25:29;9.55;;;4.38;;
46551;SDS011;32278;51.810;4.712;2022-09-09T02:27:55;8.10;;;3.92;;
46551;SDS011;32278;51.810;4.712;2022-09-09T02:30:23;11.45;;;3.97;;
46551;SDS011;32278;51.810;4.712;2022-09-09T02:32:50;7.82;;;4.53;;
46551;SDS011;32278;51.810;4.712;2022-09-09T02:35:22;5.03;;;3.53;;
46551;SDS011;32278;51.810;4.712;2022-09-09T02:37:49;9.77;;;3.58;;
46551;SDS011;32278;51.810;4.712;2022-09-09T02:40:17;7.97;;;3.75;;
46551;SDS011;32278;51.810;4.712;2022-09-09T02:42:44;5.47;;;3.65;;
46551;SDS011;32278;51.810;4.712;2022-09-09T02:45:12;11.05;;;3.38;;
46551;SDS011;32278;51.810;4.712;2022-09-09T02:52:42;8.32;;;3.70;;
46551;SDS011;32278;51.810;4.712;2022-09-09T02:55:19;4.20;;;2.78;;
46551;SDS011;32278;51.810;4.712;2022-09-09T02:57:47;8.02;;;3.97;;
46551;SDS011;32278;51.810;4.712;2022-09-09T03:00:14;7.47;;;2.70;;
46551;SDS011;32278;51.810;4.712;2022-09-09T03:02:40;7.80;;;2.90;;
46551;SDS011;32278;51.810;4.712;2022-09-09T03:05:07;6.80;;;2.20;;
46551;SDS011;32278;51.810;4.712;2022-09-09T03:07:33;8.55;;;2.78;;
46551;SDS011;32278;51.810;4.712;2022-09-09T03:09:58;6.13;;;2.10;;
46551;SDS011;32278;51.810;4.712;2022-09-09T03:12:24;10.48;;;2.28;;
46551;SDS011;32278;51.810;4.712;2022-09-09T03:14:49;5.35;;;2.22;;
46551;SDS011;32278;51.810;4.712;2022-09-09T03:17:15;5.75;;;2.03;;
46551;SDS011;32278;51.810;4.712;2022-09-09T03:19:41;5.43;;;2.30;;
46551;SDS011;32278;51.810;4.712;2022-09-09T03:22:08;7.32;;;2.05;;
46551;SDS011;32278;51.810;4.712;2022-09-09T03:24:35;4.50;;;2.17;;
46551;SDS011;32278;51.810;4.712;2022-09-09T03:27:00;3.28;;;2.08;;
46551;SDS011;32278;51.810;4.712;2022-09-09T03:29:26;4.85;;;2.20;;
46551;SDS011;32278;51.810;4.712;2022-09-09T03:31:51;6.05;;;2.40;;
46551;SDS011;32278;51.810;4.712;2022-09-09T03:34:17;5.93;;;2.00;;
46551;SDS011;32278;51.810;4.712;2022-09-09T03:36:42;5.93;;;2.33;;
46551;SDS011;32278;51.810;4.712;2022-09-09T03:39:08;8.38;;;2.03;;
46551;SDS011;32278;51.810;4.712;2022-09-09T03:41:34;8.07;;;2.10;;
46551;SDS011;32278;51.810;4.712;2022-09-09T03:43:59;4.95;;;1.90;;
46551;SDS011;32278;51.810;4.712;2022-09-09T03:46:25;8.43;;;2.08;;
46551;SDS011;32278;51.810;4.712;2022-09-09T03:48:51;5.30;;;2.05;;
46551;SDS011;32278;51.810;4.712;2022-09-09T03:51:20;4.80;;;2.10;;
46551;SDS011;32278;51.810;4.712;2022-09-09T03:53:46;7.20;;;2.72;;
46551;SDS011;32278;51.810;4.712;2022-09-09T03:56:12;5.20;;;2.10;;
46551;SDS011;32278;51.810;4.712;2022-09-09T03:58:38;7.85;;;2.38;;
46551;SDS011;32278;51.810;4.712;2022-09-09T04:03:34;4.35;;;2.22;;
46551;SDS011;32278;51.810;4.712;2022-09-09T04:06:00;5.45;;;2.42;;
46551;SDS011;32278;51.810;4.712;2022-09-09T04:08:28;6.25;;;2.30;;
46551;SDS011;32278;51.810;4.712;2022-09-09T04:10:56;5.40;;;2.83;;
46551;SDS011;32278;51.810;4.712;2022-09-09T04:13:22;5.18;;;2.30;;
46551;SDS011;32278;51.810;4.712;2022-09-09T04:15:56;4.50;;;1.92;;
46551;SDS011;32278;51.810;4.712;2022-09-09T04:18:23;8.02;;;2.47;;
46551;SDS011;32278;51.810;4.712;2022-09-09T04:20:49;4.63;;;2.05;;
46551;SDS011;32278;51.810;4.712;2022-09-09T04:23:16;7.47;;;1.98;;
46551;SDS011;32278;51.810;4.712;2022-09-09T04:25:47;11.18;;;2.47;;
46551;SDS011;32278;51.810;4.712;2022-09-09T04:28:14;6.95;;;2.17;;
46551;SDS011;32278;51.810;4.712;2022-09-09T04:30:41;7.00;;;2.83;;
46551;SDS011;32278;51.810;4.712;2022-09-09T04:33:08;4.38;;;1.83;;
46551;SDS011;32278;51.810;4.712;2022-09-09T04:35:34;7.53;;;1.90;;
46551;SDS011;32278;51.810;4.712;2022-09-09T04:38:00;10.77;;;2.25;;
46551;SDS011;32278;51.810;4.712;2022-09-09T04:40:27;3.22;;;1.92;;
46551;SDS011;32278;51.810;4.712;2022-09-09T04:42:54;6.55;;;2.00;;
46551;SDS011;32278;51.810;4.712;2022-09-09T04:45:20;7.78;;;2.35;;
46551;SDS011;32278;51.810;4.712;2022-09-09T04:47:46;5.43;;;1.77;;
46551;SDS011;32278;51.810;4.712;2022-09-09T04:50:11;10.55;;;2.20;;
46551;SDS011;32278;51.810;4.712;2022-09-09T04:52:37;9.23;;;2.45;;
46551;SDS011;32278;51.810;4.712;2022-09-09T04:55:03;10.50;;;2.30;;
46551;SDS011;32278;51.810;4.712;2022-09-09T04:57:29;8.15;;;2.33;;
46551;SDS011;32278;51.810;4.712;2022-09-09T04:59:56;6.53;;;2.35;;
46551;SDS011;32278;51.810;4.712;2022-09-09T05:02:22;8.10;;;2.00;;
46551;SDS011;32278;51.810;4.712;2022-09-09T05:04:48;6.55;;;2.33;;
46551;SDS011;32278;51.810;4.712;2022-09-09T05:07:14;7.68;;;2.35;;
46551;SDS011;32278;51.810;4.712;2022-09-09T05:09:40;9.60;;;2.60;;
46551;SDS011;32278;51.810;4.712;2022-09-09T05:12:05;9.00;;;2.20;;
46551;SDS011;32278;51.810;4.712;2022-09-09T05:14:31;12.82;;;2.67;;
46551;SDS011;32278;51.810;4.712;2022-09-09T05:16:57;5.50;;;2.05;;
46551;SDS011;32278;51.810;4.712;2022-09-09T05:19:23;5.43;;;2.10;;
46551;SDS011;32278;51.810;4.712;2022-09-09T05:21:49;6.03;;;2.00;;
46551;SDS011;32278;51.810;4.712;2022-09-09T05:24:15;12.85;;;2.97;;
46551;SDS011;32278;51.810;4.712;2022-09-09T05:26:41;4.88;;;1.90;;
46551;SDS011;32278;51.810;4.712;2022-09-09T05:29:08;6.28;;;2.20;;
46551;SDS011;32278;51.810;4.712;2022-09-09T05:31:34;5.20;;;1.80;;
46551;SDS011;32278;51.810;4.712;2022-09-09T05:33:59;4.30;;;2.45;;
46551;SDS011;32278;51.810;4.712;2022-09-09T05:36:25;6.57;;;2.30;;
46551;SDS011;32278;51.810;4.712;2022-09-09T05:38:51;14.98;;;4.38;;
46551;SDS011;32278;51.810;4.712;2022-09-09T05:41:18;10.32;;;3.85;;
46551;SDS011;32278;51.810;4.712;2022-09-09T05:43:45;12.20;;;3.97;;
46551;SDS011;32278;51.810;4.712;2022-09-09T05:46:12;8.93;;;2.08;;
46551;SDS011;32278;51.810;4.712;2022-09-09T05:48:44;7.75;;;2.03;;
46551;SDS011;32278;51.810;4.712;2022-09-09T05:51:16;6.15;;;2.15;;
46551;SDS011;32278;51.810;4.712;2022-09-09T05:53:47;9.00;;;2.72;;
46551;SDS011;32278;51.810;4.712;2022-09-09T05:58:45;9.43;;;2.30;;
46551;SDS011;32278;51.810;4.712;2022-09-09T06:03:44;11.27;;;3.30;;
46551;SDS011;32278;51.810;4.712;2022-09-09T06:06:12;6.55;;;2.40;;
46551;SDS011;32278;51.810;4.712;2022-09-09T06:08:41;8.45;;;2.50;;
46551;SDS011;32278;51.810;4.712;2022-09-09T06:11:17;11.30;;;2.63;;
46551;SDS011;32278;51.810;4.712;2022-09-09T06:13:45;12.20;;;2.42;;
46551;SDS011;32278;51.810;4.712;2022-09-09T06:16:13;6.80;;;2.00;;
46551;SDS011;32278;51.810;4.712;2022-09-09T06:18:41;9.68;;;2.67;;
46551;SDS011;32278;51.810;4.712;2022-09-09T06:23:45;11.32;;;2.92;;
46551;SDS011;32278;51.810;4.712;2022-09-09T06:26:13;7.65;;;2.58;;
46551;SDS011;32278;51.810;4.712;2022-09-09T06:28:42;8.95;;;2.40;;
46551;SDS011;32278;51.810;4.712;2022-09-09T06:31:09;13.75;;;3.22;;
46551;SDS011;32278;51.810;4.712;2022-09-09T06:33:39;8.95;;;2.40;;
46551;SDS011;32278;51.810;4.712;2022-09-09T06:36:13;7.45;;;2.45;;
46551;SDS011;32278;51.810;4.712;2022-09-09T06:38:40;10.30;;;2.50;;
46551;SDS011;32278;51.810;4.712;2022-09-09T06:41:07;7.63;;;2.00;;
46551;SDS011;32278;51.810;4.712;2022-09-09T06:43:33;12.95;;;2.22;;
46551;SDS011;32278;51.810;4.712;2022-09-09T06:46:10;3.85;;;1.60;;
46551;SDS011;32278;51.810;4.712;2022-09-09T06:48:38;9.32;;;2.58;;
46551;SDS011;32278;51.810;4.712;2022-09-09T06:51:09;8.02;;;2.28;;
46551;SDS011;32278;51.810;4.712;2022-09-09T06:53:37;6.15;;;2.45;;
46551;SDS011;32278;51.810;4.712;2022-09-09T06:58:39;13.43;;;3.40;;
46551;SDS011;32278;51.810;4.712;2022-09-09T07:01:09;7.00;;;2.72;;
46551;SDS011;32278;51.810;4.712;2022-09-09T07:03:39;7.50;;;2.63;;
46551;SDS011;32278;51.810;4.712;2022-09-09T07:06:06;8.60;;;2.67;;
46551;SDS011;32278;51.810;4.712;2022-09-09T07:08:33;7.75;;;2.17;;
46551;SDS011;32278;51.810;4.712;2022-09-09T07:11:08;6.60;;;2.47;;
46551;SDS011;32278;51.810;4.712;2022-09-09T07:13:34;7.45;;;2.45;;
46551;SDS011;32278;51.810;4.712;2022-09-09T07:16:33;10.40;;;2.92;;
46551;SDS011;32278;51.810;4.712;2022-09-09T07:18:53;10.55;;;2.65;;
46551;SDS011;32278;51.810;4.712;2022-09-09T07:21:22;8.98;;;2.17;;
46551;SDS011;32278;51.810;4.712;2022-09-09T07:23:50;4.18;;;2.17;;
46551;SDS011;32278;51.810;4.712;2022-09-09T07:26:17;5.20;;;2.50;;
46551;SDS011;32278;51.810;4.712;2022-09-09T07:28:47;8.27;;;2.13;;
46551;SDS011;32278;51.810;4.712;2022-09-09T07:31:14;10.35;;;2.55;;
46551;SDS011;32278;51.810;4.712;2022-09-09T07:33:41;8.38;;;2.30;;
46551;SDS011;32278;51.810;4.712;2022-09-09T07:36:09;7.97;;;2.53;;
46551;SDS011;32278;51.810;4.712;2022-09-09T07:38:40;9.60;;;2.42;;
46551;SDS011;32278;51.810;4.712;2022-09-09T07:41:09;8.52;;;2.00;;
46551;SDS011;32278;51.810;4.712;2022-09-09T07:43:39;4.38;;;1.85;;
46551;SDS011;32278;51.810;4.712;2022-09-09T07:46:05;7.68;;;2.10;;
46551;SDS011;32278;51.810;4.712;2022-09-09T07:48:31;10.35;;;2.85;;
46551;SDS011;32278;51.810;4.712;2022-09-09T07:51:04;8.10;;;2.63;;
46551;SDS011;32278;51.810;4.712;2022-09-09T07:53:35;10.50;;;2.65;;
46551;SDS011;32278;51.810;4.712;2022-09-09T07:56:05;11.48;;;2.55;;
46551;SDS011;32278;51.810;4.712;2022-09-09T07:58:32;15.05;;;2.20;;
46551;SDS011;32278;51.810;4.712;2022-09-09T08:00:58;3.05;;;1.90;;
46551;SDS011;32278;51.810;4.712;2022-09-09T08:03:24;7.00;;;2.53;;
46551;SDS011;32278;51.810;4.712;2022-09-09T08:05:49;10.18;;;2.75;;
46551;SDS011;32278;51.810;4.712;2022-09-09T08:08:15;7.72;;;2.28;;
46551;SDS011;32278;51.810;4.712;2022-09-09T08:10:41;5.93;;;2.08;;
46551;SDS011;32278;51.810;4.712;2022-09-09T08:13:08;8.55;;;2.30;;
46551;SDS011;32278;51.810;4.712;2022-09-09T08:15:34;6.30;;;1.65;;
46551;SDS011;32278;51.810;4.712;2022-09-09T08:17:59;10.77;;;2.83;;
46551;SDS011;32278;51.810;4.712;2022-09-09T08:20:25;9.80;;;2.60;;
46551;SDS011;32278;51.810;4.712;2022-09-09T08:22:50;7.38;;;2.40;;
46551;SDS011;32278;51.810;4.712;2022-09-09T08:25:16;8.20;;;2.65;;
46551;SDS011;32278;51.810;4.712;2022-09-09T08:27:41;8.90;;;2.55;;
46551;SDS011;32278;51.810;4.712;2022-09-09T08:30:08;8.77;;;2.67;;
46551;SDS011;32278;51.810;4.712;2022-09-09T08:32:34;16.73;;;3.17;;
46551;SDS011;32278;51.810;4.712;2022-09-09T08:35:00;28.95;;;7.93;;
46551;SDS011;32278;51.810;4.712;2022-09-09T08:37:25;8.15;;;2.25;;
46551;SDS011;32278;51.810;4.712;2022-09-09T08:39:51;8.80;;;2.30;;
46551;SDS011;32278;51.810;4.712;2022-09-09T08:55:22;6.18;;;1.95;;
46551;SDS011;32278;51.810;4.712;2022-09-09T08:57:53;6.43;;;2.05;;
46551;SDS011;32278;51.810;4.712;2022-09-09T09:00:21;11.15;;;2.00;;
46551;SDS011;32278;51.810;4.712;2022-09-09T09:05:45;8.60;;;2.00;;
46551;SDS011;32278;51.810;4.712;2022-09-09T09:08:30;4.50;;;1.88;;
46551;SDS011;32278;51.810;4.712;2022-09-09T09:10:59;10.43;;;2.35;;
46551;SDS011;32278;51.810;4.712;2022-09-09T09:16:21;12.02;;;2.17;;
46551;SDS011;32278;51.810;4.712;2022-09-09T09:18:51;4.55;;;1.80;;
46551;SDS011;32278;51.810;4.712;2022-09-09T09:24:04;5.05;;;2.42;;
46551;SDS011;32278;51.810;4.712;2022-09-09T09:26:46;6.43;;;2.38;;
46551;SDS011;32278;51.810;4.712;2022-09-09T09:29:16;3.67;;;1.90;;
46551;SDS011;32278;51.810;4.712;2022-09-09T09:31:45;7.57;;;2.53;;
46551;SDS011;32278;51.810;4.712;2022-09-09T09:34:17;10.98;;;2.10;;
46551;SDS011;32278;51.810;4.712;2022-09-09T09:36:53;7.70;;;2.65;;
46551;SDS011;32278;51.810;4.712;2022-09-09T09:39:53;12.45;;;1.90;;
46551;SDS011;32278;51.810;4.712;2022-09-09T09:42:13;5.47;;;1.75;;
46551;SDS011;32278;51.810;4.712;2022-09-09T09:44:41;12.73;;;2.30;;
46551;SDS011;32278;51.810;4.712;2022-09-09T09:49:40;8.20;;;2.70;;
46551;SDS011;32278;51.810;4.712;2022-09-09T09:52:21;8.32;;;3.45;;
46551;SDS011;32278;51.810;4.712;2022-09-09T09:54:53;8.90;;;1.65;;
46551;SDS011;32278;51.810;4.712;2022-09-09T09:57:22;3.88;;;1.60;;
46551;SDS011;32278;51.810;4.712;2022-09-09T10:00:27;11.38;;;2.58;;
46551;SDS011;32278;51.810;4.712;2022-09-09T10:02:47;5.15;;;2.03;;
46551;SDS011;32278;51.810;4.712;2022-09-09T10:05:17;14.43;;;3.08;;
46551;SDS011;32278;51.810;4.712;2022-09-09T10:07:45;9.43;;;2.10;;
46551;SDS011;32278;51.810;4.712;2022-09-09T10:10:21;8.52;;;2.00;;
46551;SDS011;32278;51.810;4.712;2022-09-09T10:13:06;9.00;;;2.35;;
46551;SDS011;32278;51.810;4.712;2022-09-09T10:15:45;10.38;;;2.45;;
46551;SDS011;32278;51.810;4.712;2022-09-09T10:18:29;5.78;;;2.03;;
46551;SDS011;32278;51.810;4.712;2022-09-09T10:21:31;4.50;;;2.15;;
46551;SDS011;32278;51.810;4.712;2022-09-09T10:24:28;5.72;;;2.85;;
46551;SDS011;32278;51.810;4.712;2022-09-09T10:43:30;9.73;;;3.15;;
46551;SDS011;32278;51.810;4.712;2022-09-09T10:46:06;8.13;;;2.58;;
46551;SDS011;32278;51.810;4.712;2022-09-09T10:54:31;9.13;;;3.60;;
46551;SDS011;32278;51.810;4.712;2022-09-09T10:57:12;6.03;;;3.42;;
46551;SDS011;32278;51.810;4.712;2022-09-09T10:59:50;6.90;;;3.20;;
46551;SDS011;32278;51.810;4.712;2022-09-09T11:12:49;8.98;;;3.17;;
46551;SDS011;32278;51.810;4.712;2022-09-09T11:15:20;5.80;;;3.03;;
46551;SDS011;32278;51.810;4.712;2022-09-09T11:17:55;8.57;;;3.40;;
46551;SDS011;32278;51.810;4.712;2022-09-09T11:23:53;5.72;;;3.75;;
46551;SDS011;32278;51.810;4.712;2022-09-09T11:25:59;7.75;;;4.20;;
46551;SDS011;32278;51.810;4.712;2022-09-09T11:42:48;5.00;;;2.70;;
46551;SDS011;32278;51.810;4.712;2022-09-09T11:45:25;6.10;;;3.17;;
46551;SDS011;32278;51.810;4.712;2022-09-09T11:47:55;8.80;;;2.80;;
46551;SDS011;32278;51.810;4.712;2022-09-09T11:52:50;4.90;;;2.50;;
46551;SDS011;32278;51.810;4.712;2022-09-09T11:55:29;7.78;;;2.83;;
46551;SDS011;32278;51.810;4.712;2022-09-09T12:06:32;7.00;;;2.47;;
46551;SDS011;32278;51.810;4.712;2022-09-09T12:09:15;11.57;;;3.42;;
46551;SDS011;32278;51.810;4.712;2022-09-09T12:11:48;3.17;;;2.67;;
46551;SDS011;32278;51.810;4.712;2022-09-09T12:14:21;6.13;;;2.75;;
46551;SDS011;32278;51.810;4.712;2022-09-09T12:17:08;9.95;;;2.90;;
46551;SDS011;32278;51.810;4.712;2022-09-09T12:19:40;5.15;;;2.83;;
46551;SDS011;32278;51.810;4.712;2022-09-09T12:25:35;6.57;;;3.05;;
46551;SDS011;32278;51.810;4.712;2022-09-09T12:28:04;4.10;;;2.80;;
46551;SDS011;32278;51.810;4.712;2022-09-09T12:31:23;7.55;;;2.90;;
46551;SDS011;32278;51.810;4.712;2022-09-09T12:33:32;8.40;;;3.00;;
46551;SDS011;32278;51.810;4.712;2022-09-09T12:35:59;6.85;;;2.97;;
46551;SDS011;32278;51.810;4.712;2022-09-09T12:38:36;6.38;;;3.03;;
46551;SDS011;32278;51.810;4.712;2022-09-09T12:41:04;7.65;;;3.83;;
46551;SDS011;32278;51.810;4.712;2022-09-09T12:43:30;3.72;;;2.45;;
46551;SDS011;32278;51.810;4.712;2022-09-09T12:46:00;4.85;;;3.17;;
46551;SDS011;32278;51.810;4.712;2022-09-09T12:48:36;8.38;;;2.95;;
46551;SDS011;32278;51.810;4.712;2022-09-09T12:51:06;5.85;;;2.72;;
46551;SDS011;32278;51.810;4.712;2022-09-09T12:53:53;5.63;;;2.53;;
46551;SDS011;32278;51.810;4.712;2022-09-09T12:56:21;4.65;;;2.60;;
46551;SDS011;32278;51.810;4.712;2022-09-09T12:58:51;10.00;;;3.50;;
46551;SDS011;32278;51.810;4.712;2022-09-09T13:01:26;7.53;;;2.97;;
46551;SDS011;32278;51.810;4.712;2022-09-09T13:03:54;9.70;;;3.03;;
46551;SDS011;32278;51.810;4.712;2022-09-09T13:06:24;6.40;;;2.80;;
46551;SDS011;32278;51.810;4.712;2022-09-09T13:08:51;8.02;;;2.78;;
46551;SDS011;32278;51.810;4.712;2022-09-09T13:11:23;6.38;;;3.17;;
46551;SDS011;32278;51.810;4.712;2022-09-09T13:14:13;3.85;;;2.20;;
46551;SDS011;32278;51.810;4.712;2022-09-09T13:16:53;6.97;;;2.42;;
46551;SDS011;32278;51.810;4.712;2022-09-09T13:19:21;8.55;;;2.45;;
46551;SDS011;32278;51.810;4.712;2022-09-09T13:21:47;7.63;;;2.58;;
46551;SDS011;32278;51.810;4.712;2022-09-09T13:24:24;4.43;;;2.63;;
46551;SDS011;32278;51.810;4.712;2022-09-09T13:29:55;1.85;;;1.70;;
46551;SDS011;32278;51.810;4.712;2022-09-09T13:32:22;9.43;;;2.00;;
46551;SDS011;32278;51.810;4.712;2022-09-09T13:34:59;3.13;;;1.58;;
46551;SDS011;32278;51.810;4.712;2022-09-09T13:37:36;3.38;;;1.40;;
46551;SDS011;32278;51.810;4.712;2022-09-09T13:40:04;1.27;;;1.17;;
46551;SDS011;32278;51.810;4.712;2022-09-09T13:42:31;4.32;;;1.48;;
46551;SDS011;32278;51.810;4.712;2022-09-09T13:45:00;6.35;;;1.48;;
46551;SDS011;32278;51.810;4.712;2022-09-09T13:47:31;4.90;;;1.70;;
46551;SDS011;32278;51.810;4.712;2022-09-09T13:50:09;4.65;;;2.13;;
46551;SDS011;32278;51.810;4.712;2022-09-09T13:52:46;6.63;;;1.80;;
46551;SDS011;32278;51.810;4.712;2022-09-09T13:55:12;4.75;;;1.70;;
46551;SDS011;32278;51.810;4.712;2022-09-09T13:57:38;4.40;;;1.50;;
46551;SDS011;32278;51.810;4.712;2022-09-09T14:00:05;4.22;;;1.67;;
46551;SDS011;32278;51.810;4.712;2022-09-09T14:02:33;1.73;;;1.58;;
46551;SDS011;32278;51.810;4.712;2022-09-09T14:04:59;3.65;;;1.63;;
46551;SDS011;32278;51.810;4.712;2022-09-09T14:07:25;1.60;;;1.40;;
46551;SDS011;32278;51.810;4.712;2022-09-09T14:09:50;5.95;;;1.77;;
46551;SDS011;32278;51.810;4.712;2022-09-09T14:12:17;2.97;;;1.40;;
46551;SDS011;32278;51.810;4.712;2022-09-09T14:14:43;6.93;;;1.05;;
46551;SDS011;32278;51.810;4.712;2022-09-09T14:17:09;2.10;;;1.10;;
46551;SDS011;32278;51.810;4.712;2022-09-09T14:19:34;4.47;;;0.90;;
46551;SDS011;32278;51.810;4.712;2022-09-09T14:22:02;1.70;;;1.17;;
46551;SDS011;32278;51.810;4.712;2022-09-09T14:24:27;3.22;;;1.50;;
46551;SDS011;32278;51.810;4.712;2022-09-09T14:26:53;2.05;;;1.15;;
46551;SDS011;32278;51.810;4.712;2022-09-09T14:29:19;3.50;;;0.88;;
46551;SDS011;32278;51.810;4.712;2022-09-09T14:31:45;2.42;;;1.13;;
46551;SDS011;32278;51.810;4.712;2022-09-09T14:34:10;2.35;;;1.70;;
46551;SDS011;32278;51.810;4.712;2022-09-09T14:36:37;2.10;;;1.20;;
46551;SDS011;32278;51.810;4.712;2022-09-09T14:39:03;5.65;;;1.52;;
46551;SDS011;32278;51.810;4.712;2022-09-09T14:41:29;3.65;;;1.55;;
46551;SDS011;32278;51.810;4.712;2022-09-09T14:43:55;2.92;;;1.30;;
46551;SDS011;32278;51.810;4.712;2022-09-09T14:46:21;4.90;;;1.02;;
46551;SDS011;32278;51.810;4.712;2022-09-09T14:48:47;5.13;;;1.23;;
46551;SDS011;32278;51.810;4.712;2022-09-09T14:51:17;3.42;;;1.63;;
46551;SDS011;32278;51.810;4.712;2022-09-09T14:53:45;4.43;;;0.95;;
46551;SDS011;32278;51.810;4.712;2022-09-09T14:56:13;1.63;;;1.00;;
46551;SDS011;32278;51.810;4.712;2022-09-09T14:58:42;3.72;;;1.38;;
46551;SDS011;32278;51.810;4.712;2022-09-09T15:01:09;3.53;;;1.52;;
46551;SDS011;32278;51.810;4.712;2022-09-09T15:03:39;2.75;;;1.50;;
46551;SDS011;32278;51.810;4.712;2022-09-09T15:06:07;5.95;;;1.98;;
46551;SDS011;32278;51.810;4.712;2022-09-09T15:08:34;3.75;;;1.40;;
46551;SDS011;32278;51.810;4.712;2022-09-09T15:11:01;2.13;;;1.20;;
46551;SDS011;32278;51.810;4.712;2022-09-09T15:13:28;1.83;;;1.10;;
46551;SDS011;32278;51.810;4.712;2022-09-09T15:15:53;7.97;;;1.60;;
46551;SDS011;32278;51.810;4.712;2022-09-09T15:18:19;4.70;;;1.60;;
46551;SDS011;32278;51.810;4.712;2022-09-09T15:20:45;3.03;;;1.30;;
46551;SDS011;32278;51.810;4.712;2022-09-09T15:23:11;4.93;;;1.65;;
46551;SDS011;32278;51.810;4.712;2022-09-09T15:25:50;4.32;;;1.48;;
46551;SDS011;32278;51.810;4.712;2022-09-09T15:28:17;3.90;;;1.65;;
46551;SDS011;32278;51.810;4.712;2022-09-09T15:30:42;6.07;;;1.75;;
46551;SDS011;32278;51.810;4.712;2022-09-09T15:33:09;6.15;;;1.63;;
46551;SDS011;32278;51.810;4.712;2022-09-09T15:35:35;2.67;;;1.67;;
46551;SDS011;32278;51.810;4.712;2022-09-09T15:38:02;8.35;;;2.22;;
46551;SDS011;32278;51.810;4.712;2022-09-09T15:40:29;9.75;;;2.58;;
46551;SDS011;32278;51.810;4.712;2022-09-09T15:42:57;3.08;;;1.85;;
46551;SDS011;32278;51.810;4.712;2022-09-09T15:45:24;4.05;;;1.80;;
46551;SDS011;32278;51.810;4.712;2022-09-09T15:47:50;4.22;;;1.48;;
46551;SDS011;32278;51.810;4.712;2022-09-09T15:50:16;7.28;;;2.35;;
46551;SDS011;32278;51.810;4.712;2022-09-09T15:52:42;5.60;;;1.60;;
46551;SDS011;32278;51.810;4.712;2022-09-09T15:55:08;6.07;;;1.70;;
46551;SDS011;32278;51.810;4.712;2022-09-09T15:57:33;7.80;;;3.13;;
46551;SDS011;32278;51.810;4.712;2022-09-09T15:59:59;4.15;;;1.67;;
46551;SDS011;32278;51.810;4.712;2022-09-09T16:02:26;3.67;;;2.10;;
46551;SDS011;32278;51.810;4.712;2022-09-09T16:04:51;4.80;;;1.80;;
46551;SDS011;32278;51.810;4.712;2022-09-09T16:07:17;6.57;;;2.03;;
46551;SDS011;32278;51.810;4.712;2022-09-09T16:09:43;5.88;;;1.63;;
46551;SDS011;32278;51.810;4.712;2022-09-09T16:12:08;9.50;;;2.20;;
46551;SDS011;32278;51.810;4.712;2022-09-09T16:14:36;5.68;;;2.13;;
46551;SDS011;32278;51.810;4.712;2022-09-09T16:17:03;2.88;;;1.52;;
46551;SDS011;32278;51.810;4.712;2022-09-09T16:19:30;3.00;;;1.50;;
46551;SDS011;32278;51.810;4.712;2022-09-09T16:21:56;3.63;;;1.55;;
46551;SDS011;32278;51.810;4.712;2022-09-09T16:24:22;2.22;;;1.33;;
46551;SDS011;32278;51.810;4.712;2022-09-09T16:26:50;2.22;;;1.52;;
46551;SDS011;32278;51.810;4.712;2022-09-09T16:29:17;8.43;;;1.88;;
46551;SDS011;32278;51.810;4.712;2022-09-09T16:31:47;6.85;;;2.20;;
46551;SDS011;32278;51.810;4.712;2022-09-09T16:34:14;4.65;;;1.40;;
46551;SDS011;32278;51.810;4.712;2022-09-09T16:36:42;8.60;;;1.90;;
46551;SDS011;32278;51.810;4.712;2022-09-09T16:39:09;4.18;;;1.65;;
46551;SDS011;32278;51.810;4.712;2022-09-09T16:41:41;2.67;;;1.40;;
46551;SDS011;32278;51.810;4.712;2022-09-09T16:44:09;4.07;;;1.73;;
46551;SDS011;32278;51.810;4.712;2022-09-09T16:46:36;6.22;;;1.55;;
46551;SDS011;32278;51.810;4.712;2022-09-09T16:49:05;3.42;;;1.42;;
46551;SDS011;32278;51.810;4.712;2022-09-09T16:51:39;6.07;;;1.63;;
46551;SDS011;32278;51.810;4.712;2022-09-09T16:54:07;2.85;;;1.50;;
46551;SDS011;32278;51.810;4.712;2022-09-09T16:56:34;5.85;;;1.77;;
46551;SDS011;32278;51.810;4.712;2022-09-09T16:59:08;6.13;;;2.03;;
46551;SDS011;32278;51.810;4.712;2022-09-09T17:01:36;3.22;;;1.38;;
46551;SDS011;32278;51.810;4.712;2022-09-09T17:04:04;5.72;;;2.28;;
46551;SDS011;32278;51.810;4.712;2022-09-09T17:06:40;4.47;;;2.00;;
46551;SDS011;32278;51.810;4.712;2022-09-09T17:09:09;5.85;;;1.63;;
46551;SDS011;32278;51.810;4.712;2022-09-09T17:11:36;4.25;;;1.73;;
46551;SDS011;32278;51.810;4.712;2022-09-09T17:14:03;7.45;;;1.50;;
46551;SDS011;32278;51.810;4.712;2022-09-09T17:16:30;7.03;;;1.80;;
46551;SDS011;32278;51.810;4.712;2022-09-09T17:18:58;7.55;;;1.80;;
46551;SDS011;32278;51.810;4.712;2022-09-09T17:21:26;4.18;;;1.58;;
46551;SDS011;32278;51.810;4.712;2022-09-09T17:23:53;4.43;;;1.60;;
46551;SDS011;32278;51.810;4.712;2022-09-09T17:26:21;6.90;;;1.92;;
46551;SDS011;32278;51.810;4.712;2022-09-09T17:28:48;3.78;;;1.88;;
46551;SDS011;32278;51.810;4.712;2022-09-09T17:31:14;5.93;;;2.08;;
46551;SDS011;32278;51.810;4.712;2022-09-09T17:33:43;9.50;;;2.50;;
46551;SDS011;32278;51.810;4.712;2022-09-09T17:38:36;4.10;;;1.80;;